createdAt,value
2023-05-10T00:00:56.990Z,99955.94
2023-05-10T00:01:59.375Z,99950.13
2023-05-10T00:03:01.468Z,99952.31
2023-05-10T00:04:03.374Z,99950.78
2023-05-10T00:05:06.126Z,99950.06
2023-05-10T00:06:08.021Z,99958.81
2023-05-10T00:07:11.262Z,99949.53
2023-05-10T00:08:13.126Z,99955.56
2023-05-10T00:09:15.023Z,99952.63
2023-05-10T00:10:17.077Z,99952.47
2023-05-10T00:11:20.401Z,99955.41
2023-05-10T00:12:24.252Z,99957.63
2023-05-10T00:13:26.442Z,99948.00
2023-05-10T00:14:28.448Z,99948.78
2023-05-10T00:15:31.608Z,99948.28
2023-05-10T00:16:33.479Z,99947.53
2023-05-10T00:17:36.047Z,99943.72
2023-05-10T00:18:37.990Z,99950.25
2023-05-10T00:19:39.885Z,99947.69
2023-05-10T00:20:41.716Z,99949.47
2023-05-10T00:21:43.605Z,99943.13
2023-05-10T00:22:45.752Z,99952.31
2023-05-10T00:23:47.570Z,99946.41
2023-05-10T00:24:49.450Z,99942.50
2023-05-10T00:25:51.401Z,99935.28
2023-05-10T00:26:53.398Z,99946.34
2023-05-10T00:27:56.387Z,99947.28
2023-05-10T00:28:59.609Z,99936.53
2023-05-10T00:30:01.698Z,99941.09
2023-05-10T00:31:04.685Z,99936.81
2023-05-10T00:32:07.037Z,99939.87
2023-05-10T00:33:09.375Z,99935.88
2023-05-10T00:34:11.237Z,99942.47
2023-05-10T00:35:13.104Z,99937.41
2023-05-10T00:36:15.042Z,99938.13
2023-05-10T00:37:16.927Z,99943.44
2023-05-10T00:38:19.198Z,99934.06
2023-05-10T00:39:21.129Z,99937.63
2023-05-10T00:40:23.720Z,99935.78
2023-05-10T00:41:26.135Z,99938.03
2023-05-10T00:42:28.076Z,99934.19
2023-05-10T00:43:30.912Z,99935.00
2023-05-10T00:44:32.835Z,99937.16
2023-05-10T00:45:37.586Z,99938.63
2023-05-10T00:46:39.629Z,99936.38
2023-05-10T00:47:41.925Z,99941.59
2023-05-10T00:48:45.698Z,99939.75
2023-05-10T00:49:47.605Z,99931.72
2023-05-10T00:50:49.768Z,99935.25
2023-05-10T00:51:51.699Z,99932.69
2023-05-10T00:52:53.769Z,99926.81
2023-05-10T00:53:57.066Z,99930.06
2023-05-10T00:54:59.389Z,99928.09
2023-05-10T00:56:01.526Z,99930.41
2023-05-10T00:57:04.272Z,99931.25
2023-05-10T00:58:06.680Z,99928.28
2023-05-10T00:59:11.526Z,99926.66
2023-05-10T01:00:14.146Z,99930.00
2023-05-10T01:01:16.298Z,99927.53
2023-05-10T01:02:18.312Z,99927.69
2023-05-10T01:03:20.459Z,99923.31
2023-05-10T01:04:26.676Z,99926.84
2023-05-10T01:05:28.785Z,99927.91
2023-05-10T01:06:33.305Z,99924.16
2023-05-10T01:07:35.165Z,99929.75
2023-05-10T01:08:37.949Z,99925.53
2023-05-10T01:09:40.262Z,99924.06
2023-05-10T01:10:42.955Z,99931.94
2023-05-10T01:11:45.582Z,99924.34
2023-05-10T01:12:48.324Z,99923.31
2023-05-10T01:13:56.700Z,99929.12
2023-05-10T01:14:59.061Z,99922.34
2023-05-10T01:16:04.190Z,99921.19
2023-05-10T01:17:07.496Z,99926.38
2023-05-10T01:18:11.039Z,99924.19
2023-05-10T01:19:18.206Z,99918.81
2023-05-10T01:20:20.811Z,99925.09
2023-05-10T01:21:39.467Z,99929.59
2023-05-10T01:22:44.275Z,99920.78
2023-05-10T01:24:20.454Z,99922.47
2023-05-10T01:25:45.162Z,99925.28
2023-05-10T01:27:20.881Z,99929.44
2023-05-10T01:28:34.568Z,99925.25
2023-05-10T01:30:15.509Z,99920.88
2023-05-10T01:31:52.232Z,99922.03
2023-05-10T01:33:18.611Z,99920.88
2023-05-10T01:34:37.057Z,99918.81
2023-05-10T01:35:44.145Z,99917.53
2023-05-10T01:36:54.003Z,99910.50
2023-05-10T01:38:19.841Z,99913.28
2023-05-10T01:39:37.444Z,99916.19
2023-05-10T01:40:53.377Z,99919.25
2023-05-10T01:42:11.441Z,99916.06
2023-05-10T01:43:22.484Z,99917.09
2023-05-10T01:44:54.340Z,99912.88
2023-05-10T01:46:05.732Z,99911.25
2023-05-10T01:47:21.243Z,99914.97
2023-05-10T01:48:25.600Z,99912.00
2023-05-10T01:49:31.832Z,99912.34
2023-05-10T01:50:36.541Z,99911.84
2023-05-10T01:51:55.794Z,99912.88
2023-05-10T01:53:00.289Z,99913.47
2023-05-10T01:54:04.652Z,99920.28
2023-05-10T01:55:10.151Z,99918.59
2023-05-10T01:56:13.864Z,99912.88
2023-05-10T01:57:18.459Z,99913.91
2023-05-10T01:58:26.027Z,99915.78
2023-05-10T01:59:37.281Z,99903.41
2023-05-10T02:00:45.644Z,99907.03
2023-05-10T02:01:49.354Z,99912.72
2023-05-10T02:02:53.933Z,99913.47
2023-05-10T02:03:58.237Z,99912.00
2023-05-10T02:05:00.717Z,99901.09
2023-05-10T02:06:04.232Z,99908.22
2023-05-10T02:07:08.027Z,99902.84
2023-05-10T02:08:11.658Z,99903.25
2023-05-10T02:09:15.288Z,99903.91
2023-05-10T02:10:18.739Z,99903.91
2023-05-10T02:11:23.873Z,99902.97
2023-05-10T02:12:28.233Z,99902.81
2023-05-10T02:13:32.798Z,99904.84
2023-05-10T02:14:37.941Z,99901.50
2023-05-10T02:15:42.549Z,99901.09
2023-05-10T02:16:46.104Z,99905.22
2023-05-10T02:17:48.721Z,99895.63
2023-05-10T02:18:53.185Z,99902.25
2023-05-10T02:19:57.446Z,99899.63
2023-05-10T02:21:01.250Z,99900.47
2023-05-10T02:22:04.418Z,99898.47
2023-05-10T02:23:09.551Z,99900.34
2023-05-10T02:24:12.764Z,99899.03
2023-05-10T02:25:16.693Z,99897.41
2023-05-10T02:26:22.043Z,99898.88
2023-05-10T02:27:26.648Z,99896.06
2023-05-10T02:28:30.261Z,99897.28
2023-05-10T02:29:33.718Z,99901.22
2023-05-10T02:30:36.854Z,99897.72
2023-05-10T02:31:40.024Z,99898.50
2023-05-10T02:32:44.018Z,99897.22
2023-05-10T02:33:48.294Z,99896.50
2023-05-10T02:34:52.968Z,99900.06
2023-05-10T02:35:57.056Z,99898.31
2023-05-10T02:37:00.813Z,99900.63
2023-05-10T02:38:03.469Z,99900.78
2023-05-10T02:39:10.383Z,99896.78
2023-05-10T02:40:14.022Z,99895.53
2023-05-10T02:41:16.345Z,99889.94
2023-05-10T02:42:24.601Z,99894.16
2023-05-10T02:43:27.136Z,99900.88
2023-05-10T02:44:32.064Z,99895.97
2023-05-10T02:45:37.459Z,99896.72
2023-05-10T02:46:39.566Z,99899.91
2023-05-10T02:47:42.153Z,99894.94
2023-05-10T02:48:44.179Z,99895.91
2023-05-10T02:49:46.713Z,99899.91
2023-05-10T02:50:52.468Z,99895.19
2023-05-10T02:52:00.978Z,99901.66
2023-05-10T02:53:10.583Z,99898.44
2023-05-10T02:54:16.507Z,99894.66
2023-05-10T02:55:22.389Z,99899.63
2023-05-10T02:56:34.223Z,99896.97
2023-05-10T02:57:42.109Z,99898.62
2023-05-10T02:58:44.372Z,99901.75
2023-05-10T02:59:47.066Z,99897.34
2023-05-10T03:00:49.097Z,99897.72
2023-05-10T03:01:51.141Z,99903.63
2023-05-10T03:02:53.832Z,99900.63
2023-05-10T03:03:56.452Z,99905.22
2023-05-10T03:04:58.387Z,99901.34
2023-05-10T03:06:00.680Z,99896.72
2023-05-10T03:07:03.633Z,99901.75
2023-05-10T03:08:05.942Z,99901.47
2023-05-10T03:09:10.339Z,99904.22
2023-05-10T03:10:12.892Z,99902.78
2023-05-10T03:11:36.758Z,99904.66
2023-05-10T03:12:57.870Z,99905.06
2023-05-10T03:14:41.064Z,99903.81
2023-05-10T03:16:03.699Z,99905.50
2023-05-10T03:17:42.660Z,99898.34
2023-05-10T03:18:56.905Z,99903.38
2023-05-10T03:20:04.265Z,99903.38
2023-05-10T03:21:11.652Z,99903.22
2023-05-10T03:22:32.086Z,99911.22
2023-05-10T03:23:41.516Z,99899.06
2023-05-10T03:24:45.680Z,99897.97
2023-05-10T03:25:49.970Z,99904.41
2023-05-10T03:26:55.840Z,99902.13
2023-05-10T03:27:59.024Z,99901.28
2023-05-10T03:29:02.251Z,99893.53
2023-05-10T03:30:06.089Z,99896.06
2023-05-10T03:31:08.928Z,99892.47
2023-05-10T03:32:12.336Z,99898.31
2023-05-10T03:33:14.884Z,99895.56
2023-05-10T03:34:17.363Z,99898.03
2023-05-10T03:35:19.464Z,99902.13
2023-05-10T03:36:21.472Z,99901.94
2023-05-10T03:37:23.914Z,99894.13
2023-05-10T03:38:26.488Z,99895.00
2023-05-10T03:39:29.404Z,99893.50
2023-05-10T03:40:33.040Z,99892.75
2023-05-10T03:41:35.052Z,99893.22
2023-05-10T03:42:37.419Z,99897.28
2023-05-10T03:43:39.496Z,99896.91
2023-05-10T03:44:41.433Z,99905.84
2023-05-10T03:45:44.348Z,99903.66
2023-05-10T03:46:46.604Z,99892.75
2023-05-10T03:47:48.848Z,99895.81
2023-05-10T03:48:50.717Z,99895.53
2023-05-10T03:49:52.922Z,99890.28
2023-05-10T03:50:54.788Z,99896.72
2023-05-10T03:51:56.721Z,99893.72
2023-05-10T03:52:58.893Z,99891.88
2023-05-10T03:54:02.533Z,99890.72
2023-05-10T03:55:04.758Z,99893.25
2023-05-10T03:56:06.772Z,99895.03
2023-05-10T03:57:08.656Z,99898.62
2023-05-10T03:58:13.787Z,99894.87
2023-05-10T03:59:16.043Z,99895.03
2023-05-10T04:00:18.731Z,99898.66
2023-05-10T04:01:24.655Z,99898.09
2023-05-10T04:02:26.819Z,99890.41
2023-05-10T04:03:29.143Z,99891.00
2023-05-10T04:04:31.035Z,99892.16
2023-05-10T04:05:33.715Z,99894.50
2023-05-10T04:06:36.182Z,99897.59
2023-05-10T04:07:38.111Z,99901.09
2023-05-10T04:08:40.043Z,99891.06
2023-05-10T04:09:42.009Z,99896.47
2023-05-10T04:10:43.916Z,99900.50
2023-05-10T04:11:46.055Z,99896.91
2023-05-10T04:12:47.906Z,99897.38
2023-05-10T04:13:49.790Z,99899.38
2023-05-10T04:14:52.044Z,99898.78
2023-05-10T04:15:53.890Z,99895.41
2023-05-10T04:16:56.349Z,99895.72
2023-05-10T04:17:58.711Z,99899.34
2023-05-10T04:19:00.989Z,99903.09
2023-05-10T04:20:02.919Z,99901.34
2023-05-10T04:21:04.720Z,99899.53
2023-05-10T04:22:06.872Z,99902.94
2023-05-10T04:23:08.794Z,99899.81
2023-05-10T04:24:10.740Z,99898.91
2023-05-10T04:25:12.611Z,99901.41
2023-05-10T04:26:14.723Z,99899.72
2023-05-10T04:27:17.062Z,99896.88
2023-05-10T04:28:19.122Z,99896.44
2023-05-10T04:29:21.456Z,99899.81
2023-05-10T04:30:23.330Z,99903.78
2023-05-10T04:31:25.303Z,99898.47
2023-05-10T04:32:27.789Z,99898.00
2023-05-10T04:33:29.761Z,99897.28
2023-05-10T04:34:31.618Z,99894.41
2023-05-10T04:35:33.599Z,99907.38
2023-05-10T04:36:36.836Z,99900.41
2023-05-10T04:37:39.039Z,99899.22
2023-05-10T04:38:41.041Z,99899.97
2023-05-10T04:39:42.894Z,99910.00
2023-05-10T04:40:44.920Z,99908.00
2023-05-10T04:41:46.849Z,99903.66
2023-05-10T04:42:49.036Z,99906.03
2023-05-10T04:43:50.865Z,99908.03
2023-05-10T04:44:53.143Z,99907.03
2023-05-10T04:45:57.970Z,99907.81
2023-05-10T04:47:00.544Z,99909.41
2023-05-10T04:48:02.709Z,99906.34
2023-05-10T04:49:04.605Z,99908.69
2023-05-10T04:50:07.491Z,99906.75
2023-05-10T04:51:09.413Z,99905.41
2023-05-10T04:52:11.288Z,99898.00
2023-05-10T04:53:15.876Z,99900.47
2023-05-10T04:54:17.937Z,99905.69
2023-05-10T04:55:19.813Z,99910.50
2023-05-10T04:56:22.902Z,99905.06
2023-05-10T04:57:24.693Z,99901.94
2023-05-10T04:58:27.006Z,99902.16
2023-05-10T04:59:28.897Z,99902.34
2023-05-10T05:00:30.960Z,99908.94
2023-05-10T05:01:32.944Z,99907.53
2023-05-10T05:02:35.008Z,99901.50
2023-05-10T05:03:38.125Z,99904.97
2023-05-10T05:04:40.020Z,99904.34
2023-05-10T05:05:41.842Z,99910.16
2023-05-10T05:06:44.083Z,99902.87
2023-05-10T05:07:45.937Z,99903.25
2023-05-10T05:08:48.117Z,99903.75
2023-05-10T05:09:50.019Z,99904.13
2023-05-10T05:10:51.866Z,99903.25
2023-05-10T05:11:53.782Z,99902.50
2023-05-10T05:12:55.722Z,99905.66
2023-05-10T05:14:00.070Z,99906.75
2023-05-10T05:15:04.200Z,99916.00
2023-05-10T05:16:06.649Z,99914.47
2023-05-10T05:17:09.142Z,99908.78
2023-05-10T05:18:11.331Z,99911.28
2023-05-10T05:19:13.454Z,99903.03
2023-05-10T05:20:15.842Z,99913.00
2023-05-10T05:21:18.659Z,99910.97
2023-05-10T05:22:27.894Z,99914.00
2023-05-10T05:23:29.744Z,99914.44
2023-05-10T05:24:37.462Z,99912.88
2023-05-10T05:25:39.682Z,99913.41
2023-05-10T05:26:41.605Z,99914.09
2023-05-10T05:27:43.443Z,99917.72
2023-05-10T05:28:45.311Z,99918.25
2023-05-10T05:29:47.688Z,99919.06
2023-05-10T05:30:49.595Z,99920.56
2023-05-10T05:31:53.416Z,99920.44
2023-05-10T05:32:57.682Z,99921.16
2023-05-10T05:33:59.601Z,99925.00
2023-05-10T05:35:01.831Z,99919.56
2023-05-10T05:36:05.602Z,99926.28
2023-05-10T05:37:07.421Z,99919.91
2023-05-10T05:38:09.503Z,99917.97
2023-05-10T05:39:11.316Z,99929.22
2023-05-10T05:40:15.005Z,99931.56
2023-05-10T05:41:16.827Z,99933.37
2023-05-10T05:42:19.885Z,99930.16
2023-05-10T05:43:21.800Z,99925.69
2023-05-10T05:44:23.666Z,99928.16
2023-05-10T05:45:25.867Z,99931.47
2023-05-10T05:46:27.927Z,99928.53
2023-05-10T05:47:29.829Z,99937.09
2023-05-10T05:48:32.615Z,99934.91
2023-05-10T05:49:34.506Z,99927.84
2023-05-10T05:50:36.660Z,99938.69
2023-05-10T05:51:38.540Z,99931.06
2023-05-10T05:52:40.599Z,99929.47
2023-05-10T05:53:42.404Z,99935.53
2023-05-10T05:54:44.842Z,99931.84
2023-05-10T05:55:55.290Z,99933.69
2023-05-10T05:57:03.003Z,99930.06
2023-05-10T05:58:04.815Z,99938.00
2023-05-10T05:59:07.216Z,99932.19
2023-05-10T06:00:09.908Z,99933.91
2023-05-10T06:01:14.500Z,99938.59
2023-05-10T06:02:16.665Z,99934.13
2023-05-10T06:03:19.352Z,99937.00
2023-05-10T06:04:21.316Z,99936.44
2023-05-10T06:05:23.327Z,99938.91
2023-05-10T06:06:25.175Z,99936.28
2023-05-10T06:07:27.553Z,99937.91
2023-05-10T06:08:29.396Z,99933.66
2023-05-10T06:09:31.318Z,99939.69
2023-05-10T06:10:33.187Z,99945.66
2023-05-10T06:11:35.687Z,99940.97
2023-05-10T06:12:37.856Z,99935.84
2023-05-10T06:13:39.729Z,99938.81
2023-05-10T06:14:41.758Z,99945.00
2023-05-10T06:15:43.706Z,99945.44
2023-05-10T06:16:45.606Z,99949.06
2023-05-10T06:17:50.153Z,99947.44
2023-05-10T06:18:52.179Z,99940.75
2023-05-10T06:19:54.137Z,99944.66
2023-05-10T06:20:56.051Z,99947.25
2023-05-10T06:21:57.879Z,99943.22
2023-05-10T06:23:00.064Z,99945.72
2023-05-10T06:24:01.965Z,99948.37
2023-05-10T06:25:04.026Z,99947.22
2023-05-10T06:26:05.902Z,99951.00
2023-05-10T06:27:07.796Z,99948.19
2023-05-10T06:28:10.074Z,99950.72
2023-05-10T06:29:11.951Z,99953.53
2023-05-10T06:30:16.247Z,99945.09
2023-05-10T06:31:18.790Z,99945.53
2023-05-10T06:32:20.681Z,99942.25
2023-05-10T06:33:23.082Z,99952.06
2023-05-10T06:34:25.208Z,99945.53
2023-05-10T06:35:27.158Z,99945.31
2023-05-10T06:36:29.399Z,99954.16
2023-05-10T06:37:31.286Z,99949.22
2023-05-10T06:38:34.329Z,99946.41
2023-05-10T06:39:36.142Z,99944.31
2023-05-10T06:40:38.024Z,99954.53
2023-05-10T06:41:39.860Z,99948.22
2023-05-10T06:42:41.824Z,99946.38
2023-05-10T06:43:44.575Z,99950.28
2023-05-10T06:44:46.431Z,99950.34
2023-05-10T06:45:49.527Z,99956.03
2023-05-10T06:46:52.154Z,99954.81
2023-05-10T06:47:54.198Z,99950.41
2023-05-10T06:48:56.345Z,99949.78
2023-05-10T06:49:58.367Z,99953.41
2023-05-10T06:51:00.349Z,99952.22
2023-05-10T06:52:02.295Z,99955.00
2023-05-10T06:53:04.812Z,99949.09
2023-05-10T06:54:07.229Z,99942.94
2023-05-10T06:55:09.811Z,99944.78
2023-05-10T06:56:11.730Z,99940.94
2023-05-10T06:57:27.607Z,99943.34
2023-05-10T06:58:33.789Z,99938.38
2023-05-10T06:59:37.486Z,99943.94
2023-05-10T07:00:41.614Z,99944.09
2023-05-10T07:01:43.859Z,99946.19
2023-05-10T07:02:46.210Z,99952.19
2023-05-10T07:03:48.147Z,99951.53
2023-05-10T07:04:50.359Z,99944.94
2023-05-10T07:05:52.230Z,99957.69
2023-05-10T07:06:54.171Z,99948.75
2023-05-10T07:07:56.018Z,99953.53
2023-05-10T07:08:58.136Z,99951.47
2023-05-10T07:10:00.551Z,99954.47
2023-05-10T07:11:04.460Z,99951.66
2023-05-10T07:12:07.859Z,99957.97
2023-05-10T07:13:11.642Z,99957.03
2023-05-10T07:14:13.630Z,99953.19
2023-05-10T07:15:17.136Z,99957.34
2023-05-10T07:16:19.612Z,99964.38
2023-05-10T07:17:21.544Z,99948.75
2023-05-10T07:18:23.462Z,99954.97
2023-05-10T07:19:25.349Z,99954.53
2023-05-10T07:20:27.611Z,99952.91
2023-05-10T07:21:29.870Z,99959.16
2023-05-10T07:22:31.813Z,99957.91
2023-05-10T07:23:33.964Z,99953.41
2023-05-10T07:24:36.215Z,99956.94
2023-05-10T07:25:39.300Z,99951.47
2023-05-10T07:26:41.102Z,99962.72
2023-05-10T07:27:42.970Z,99953.31
2023-05-10T07:28:44.845Z,99955.34
2023-05-10T07:29:46.894Z,99954.53
2023-05-10T07:30:49.173Z,99947.34
2023-05-10T07:31:51.185Z,99954.28
2023-05-10T07:32:53.142Z,99958.47
2023-05-10T07:33:55.067Z,99950.88
2023-05-10T07:34:56.932Z,99943.38
2023-05-10T07:35:59.091Z,99937.12
2023-05-10T07:37:01.193Z,99934.53
2023-05-10T07:38:03.098Z,99938.72
2023-05-10T07:39:05.103Z,99937.31
2023-05-10T07:40:07.784Z,99931.38
2023-05-10T07:41:09.927Z,99934.78
2023-05-10T07:42:11.880Z,99931.25
2023-05-10T07:43:13.684Z,99947.59
2023-05-10T07:44:15.763Z,99943.72
2023-05-10T07:45:18.047Z,99941.34
2023-05-10T07:46:23.210Z,99937.78
2023-05-10T07:47:25.136Z,99938.03
2023-05-10T07:48:27.281Z,99941.81
2023-05-10T07:49:29.336Z,99930.97
2023-05-10T07:50:31.414Z,99934.72
2023-05-10T07:51:33.798Z,99937.12
2023-05-10T07:52:35.628Z,99941.06
2023-05-10T07:53:38.498Z,99936.28
2023-05-10T07:54:40.382Z,99934.94
2023-05-10T07:55:42.209Z,99933.75
2023-05-10T07:56:48.282Z,99931.16
2023-05-10T07:57:50.386Z,99933.09
2023-05-10T07:58:52.986Z,99945.09
2023-05-10T07:59:54.868Z,99939.41
2023-05-10T08:00:57.458Z,99939.50
2023-05-10T08:01:59.847Z,99938.00
2023-05-10T08:03:01.990Z,99941.88
2023-05-10T08:04:04.308Z,99944.00
2023-05-10T08:05:06.779Z,99939.69
2023-05-10T08:06:08.640Z,99945.91
2023-05-10T08:07:11.733Z,99942.00
2023-05-10T08:08:13.618Z,99943.50
2023-05-10T08:09:15.493Z,99943.06
2023-05-10T08:10:17.856Z,99946.56
2023-05-10T08:11:21.466Z,99946.00
2023-05-10T08:12:23.662Z,99943.16
2023-05-10T08:13:25.540Z,99955.72
2023-05-10T08:14:30.043Z,99939.13
2023-05-10T08:15:31.943Z,99944.44
2023-05-10T08:16:33.851Z,99942.59
2023-05-10T08:17:36.087Z,99943.97
2023-05-10T08:18:38.632Z,99941.81
2023-05-10T08:19:40.593Z,99942.16
2023-05-10T08:20:42.545Z,99937.84
2023-05-10T08:21:45.544Z,99945.69
2023-05-10T08:22:49.946Z,99942.69
2023-05-10T08:23:53.095Z,99941.22
2023-05-10T08:24:54.933Z,99944.34
2023-05-10T08:25:56.799Z,99948.78
2023-05-10T08:26:58.628Z,99943.56
2023-05-10T08:28:00.731Z,99944.44
2023-05-10T08:29:03.060Z,99942.59
2023-05-10T08:30:05.341Z,99944.50
2023-05-10T08:31:07.375Z,99941.28
2023-05-10T08:32:09.375Z,99942.84
2023-05-10T08:33:11.760Z,99938.94
2023-05-10T08:34:13.741Z,99948.78
2023-05-10T08:35:17.072Z,99950.28
2023-05-10T08:36:22.626Z,99942.75
2023-05-10T08:37:25.154Z,99944.19
2023-05-10T08:38:27.555Z,99946.25
2023-05-10T08:39:30.660Z,99937.91
2023-05-10T08:40:32.850Z,99943.16
2023-05-10T08:41:36.786Z,99939.09
2023-05-10T08:42:42.778Z,99941.19
2023-05-10T08:43:47.262Z,99942.88
2023-05-10T08:44:50.350Z,99940.69
2023-05-10T08:45:55.208Z,99929.53
2023-05-10T08:46:58.086Z,99933.75
2023-05-10T08:48:02.894Z,99942.59
2023-05-10T08:49:05.395Z,99947.87
2023-05-10T08:50:08.065Z,99942.19
2023-05-10T08:51:12.490Z,99941.03
2023-05-10T08:52:17.365Z,99933.09
2023-05-10T08:53:20.928Z,99936.06
2023-05-10T08:54:23.986Z,99935.84
2023-05-10T08:55:25.871Z,99930.78
2023-05-10T08:56:27.788Z,99932.66
2023-05-10T08:57:29.714Z,99925.69
2023-05-10T08:58:32.132Z,99930.72
2023-05-10T08:59:34.328Z,99932.72
2023-05-10T09:00:38.208Z,99934.22
2023-05-10T09:01:41.400Z,99934.81
2023-05-10T09:02:44.186Z,99928.31
2023-05-10T09:03:47.483Z,99933.16
2023-05-10T09:04:50.252Z,99934.50
2023-05-10T09:05:52.525Z,99936.97
2023-05-10T09:06:55.474Z,99937.44
2023-05-10T09:07:57.423Z,99935.25
2023-05-10T09:08:59.691Z,99930.38
2023-05-10T09:10:01.965Z,99927.81
2023-05-10T09:11:04.036Z,99927.84
2023-05-10T09:12:07.414Z,99938.53
2023-05-10T09:13:11.421Z,99929.12
2023-05-10T09:14:14.044Z,99935.47
2023-05-10T09:15:17.211Z,99934.75
2023-05-10T09:16:21.804Z,99936.12
2023-05-10T09:17:26.841Z,99938.19
2023-05-10T09:18:28.744Z,99936.66
2023-05-10T09:19:30.700Z,99939.19
2023-05-10T09:20:32.856Z,99929.34
2023-05-10T09:21:39.216Z,99935.13
2023-05-10T09:22:41.206Z,99929.34
2023-05-10T09:23:48.685Z,99927.78
2023-05-10T09:25:05.035Z,99933.16
2023-05-10T09:26:08.126Z,99931.59
2023-05-10T09:27:10.727Z,99925.16
2023-05-10T09:28:12.997Z,99937.91
2023-05-10T09:29:17.329Z,99932.00
2023-05-10T09:30:27.450Z,99935.72
2023-05-10T09:31:45.761Z,99936.72
2023-05-10T09:32:49.207Z,99935.91
2023-05-10T09:33:51.886Z,99934.03
2023-05-10T09:34:53.858Z,99929.62
2023-05-10T09:35:55.822Z,99926.94
2023-05-10T09:37:02.042Z,99924.84
2023-05-10T09:38:05.442Z,99931.03
2023-05-10T09:39:07.304Z,99931.53
2023-05-10T09:40:13.615Z,99920.69
2023-05-10T09:41:21.094Z,99934.72
2023-05-10T09:42:24.020Z,99925.69
2023-05-10T09:43:25.983Z,99921.41
2023-05-10T09:44:28.269Z,99920.75
2023-05-10T09:45:31.926Z,99926.41
2023-05-10T09:46:37.205Z,99925.53
2023-05-10T09:47:39.594Z,99921.59
2023-05-10T09:48:48.950Z,99918.56
2023-05-10T09:49:52.200Z,99917.09
2023-05-10T09:50:59.962Z,99926.84
2023-05-10T09:52:06.652Z,99920.66
2023-05-10T09:53:08.802Z,99918.84
2023-05-10T09:54:11.747Z,99918.00
2023-05-10T09:55:13.903Z,99920.44
2023-05-10T09:56:35.205Z,99912.41
2023-05-10T09:57:37.137Z,99910.94
2023-05-10T09:58:39.359Z,99906.44
2023-05-10T09:59:44.080Z,99907.41
2023-05-10T10:00:49.002Z,99909.84
2023-05-10T10:01:52.373Z,99903.50
2023-05-10T10:02:59.195Z,99914.44
2023-05-10T10:04:04.845Z,99904.41
2023-05-10T10:05:08.340Z,99909.50
2023-05-10T10:06:18.896Z,99902.41
2023-05-10T10:07:26.583Z,99905.06
2023-05-10T10:08:28.952Z,99897.13
2023-05-10T10:09:31.555Z,99913.56
2023-05-10T10:10:34.652Z,99901.37
2023-05-10T10:11:38.945Z,99902.16
2023-05-10T10:12:42.197Z,99899.78
2023-05-10T10:13:44.452Z,99902.97
2023-05-10T10:14:48.291Z,99904.31
2023-05-10T10:15:52.212Z,99896.34
2023-05-10T10:17:06.758Z,99885.47
2023-05-10T10:18:14.188Z,99892.88
2023-05-10T10:19:16.406Z,99887.06
2023-05-10T10:20:20.126Z,99888.66
2023-05-10T10:21:23.323Z,99888.41
2023-05-10T10:22:25.247Z,99887.84
2023-05-10T10:23:28.422Z,99884.44
2023-05-10T10:24:30.375Z,99884.97
2023-05-10T10:25:32.702Z,99880.69
2023-05-10T10:26:37.276Z,99878.56
2023-05-10T10:27:44.425Z,99885.41
2023-05-10T10:29:06.575Z,99877.81
2023-05-10T10:30:23.493Z,99879.09
2023-05-10T10:31:43.060Z,99882.81
2023-05-10T10:32:47.679Z,99878.84
2023-05-10T10:34:00.967Z,99878.59
2023-05-10T10:35:03.146Z,99885.47
2023-05-10T10:36:05.728Z,99874.88
2023-05-10T10:37:09.239Z,99870.63
2023-05-10T10:38:13.928Z,99865.84
2023-05-10T10:39:17.020Z,99871.13
2023-05-10T10:40:27.991Z,99867.44
2023-05-10T10:41:38.163Z,99860.53
2023-05-10T10:42:47.313Z,99867.97
2023-05-10T10:43:49.160Z,99865.59
2023-05-10T10:45:12.966Z,99871.69
2023-05-10T10:46:17.883Z,99863.47
2023-05-10T10:47:24.157Z,99864.00
2023-05-10T10:48:26.207Z,99862.13
2023-05-10T10:49:28.378Z,99872.72
2023-05-10T10:50:30.543Z,99862.06
2023-05-10T10:51:32.505Z,99859.34
2023-05-10T10:52:44.287Z,99864.16
2023-05-10T10:53:49.288Z,99863.69
2023-05-10T10:54:52.711Z,99859.22
2023-05-10T10:56:07.947Z,99859.69
2023-05-10T10:57:14.594Z,99851.31
2023-05-10T10:58:33.179Z,99858.94
2023-05-10T10:59:35.009Z,99848.19
2023-05-10T11:00:38.860Z,99852.31
2023-05-10T11:01:45.488Z,99845.12
2023-05-10T11:03:15.903Z,99856.03
2023-05-10T11:04:19.358Z,99844.34
2023-05-10T11:05:38.483Z,99845.66
2023-05-10T11:06:41.222Z,99840.78
2023-05-10T11:07:54.996Z,99843.97
2023-05-10T11:08:56.955Z,99829.56
2023-05-10T11:10:05.909Z,99834.34
2023-05-10T11:11:08.453Z,99844.44
2023-05-10T11:12:10.522Z,99848.00
2023-05-10T11:13:12.651Z,99840.84
2023-05-10T11:14:14.578Z,99837.72
2023-05-10T11:15:16.734Z,99836.41
2023-05-10T11:16:24.429Z,99835.13
2023-05-10T11:17:30.128Z,99837.28
2023-05-10T11:18:32.445Z,99840.19
2023-05-10T11:19:34.497Z,99837.53
2023-05-10T11:20:42.342Z,99837.53
2023-05-10T11:21:51.292Z,99836.22
2023-05-10T11:22:54.184Z,99844.16
2023-05-10T11:23:58.463Z,99833.28
2023-05-10T11:25:00.691Z,99837.53
2023-05-10T11:26:02.961Z,99839.13
2023-05-10T11:27:04.962Z,99832.25
2023-05-10T11:28:07.773Z,99828.53
2023-05-10T11:29:10.364Z,99830.63
2023-05-10T11:30:12.938Z,99827.72
2023-05-10T11:31:16.330Z,99827.47
2023-05-10T11:32:18.508Z,99835.16
2023-05-10T11:33:21.091Z,99825.63
2023-05-10T11:34:36.589Z,99825.06
2023-05-10T11:35:43.581Z,99825.59
2023-05-10T11:36:54.806Z,99827.47
2023-05-10T11:37:56.826Z,99825.03
2023-05-10T11:38:58.702Z,99818.66
2023-05-10T11:40:01.101Z,99814.94
2023-05-10T11:41:02.930Z,99815.19
2023-05-10T11:42:07.588Z,99819.16
2023-05-10T11:43:11.459Z,99807.16
2023-05-10T11:44:13.397Z,99813.53
2023-05-10T11:45:15.629Z,99796.78
2023-05-10T11:46:21.394Z,99817.22
2023-05-10T11:47:23.346Z,99808.22
2023-05-10T11:48:25.310Z,99816.31
2023-05-10T11:49:27.513Z,99814.19
2023-05-10T11:50:30.076Z,99822.16
2023-05-10T11:51:36.708Z,99810.47
2023-05-10T11:52:38.808Z,99813.13
2023-05-10T11:53:40.708Z,99810.47
2023-05-10T11:54:51.845Z,99803.16
2023-05-10T11:55:54.124Z,99805.22
2023-05-10T11:56:56.059Z,99803.06
2023-05-10T11:58:03.628Z,99813.62
2023-05-10T11:59:05.536Z,99812.59
2023-05-10T12:00:08.125Z,99818.34
2023-05-10T12:01:11.296Z,99819.00
2023-05-10T12:02:16.390Z,99810.28
2023-05-10T12:03:18.417Z,99816.47
2023-05-10T12:04:21.076Z,99820.44
2023-05-10T12:05:23.481Z,99806.66
2023-05-10T12:06:27.930Z,99817.03
2023-05-10T12:07:30.452Z,99819.63
2023-05-10T12:08:32.252Z,99823.84
2023-05-10T12:09:43.315Z,99812.72
2023-05-10T12:10:46.172Z,99823.88
2023-05-10T12:11:50.432Z,99822.50
2023-05-10T12:12:53.528Z,99819.66
2023-05-10T12:14:01.135Z,99824.97
2023-05-10T12:15:04.300Z,99830.25
2023-05-10T12:16:22.524Z,99825.22
2023-05-10T12:17:28.771Z,99830.56
2023-05-10T12:18:31.021Z,99825.53
2023-05-10T12:19:39.722Z,99815.34
2023-05-10T12:20:43.475Z,99814.75
2023-05-10T12:21:45.439Z,99825.13
2023-05-10T12:23:00.302Z,99804.63
2023-05-10T12:24:04.831Z,99823.13
2023-05-10T12:25:09.112Z,99817.59
2023-05-10T12:26:11.417Z,99813.59
2023-05-10T12:27:13.735Z,99821.66
2023-05-10T12:28:15.564Z,99818.59
2023-05-10T12:29:19.972Z,99813.84
2023-05-10T12:30:23.063Z,99818.50
2023-05-10T12:31:24.930Z,99812.22
2023-05-10T12:32:40.924Z,99815.69
2023-05-10T12:33:44.556Z,99802.72
2023-05-10T12:34:48.516Z,99804.88
2023-05-10T12:35:52.966Z,99806.50